createdAt,value
2023-03-23T15:59:47.165Z,100966.13
2023-03-23T16:02:21.865Z,100969.47
2023-03-23T16:04:50.698Z,100954.88
2023-03-23T16:07:23.611Z,100965.47
2023-03-23T16:09:52.029Z,100973.72
2023-03-23T16:12:22.343Z,100976.94
2023-03-23T16:14:51.307Z,100968.00
2023-03-23T16:17:21.879Z,100970.03
2023-03-23T16:19:50.477Z,100971.19
2023-03-23T16:22:18.981Z,100962.63
2023-03-23T16:24:47.533Z,100970.88
2023-03-23T16:27:16.240Z,100965.66
2023-03-23T16:30:02.178Z,100963.81
2023-03-23T16:32:45.561Z,100965.84
2023-03-23T16:35:18.370Z,100967.50
2023-03-23T16:37:47.927Z,100965.47
2023-03-23T16:40:23.119Z,100967.84
2023-03-23T16:42:51.858Z,100971.72
2023-03-23T16:45:24.197Z,100983.19
2023-03-23T16:47:55.162Z,100986.38
2023-03-23T16:50:27.995Z,100991.59
2023-03-23T16:52:57.436Z,100993.09
2023-03-23T16:55:27.381Z,100993.09
2023-03-23T16:58:13.256Z,100994.75
2023-03-23T17:00:49.001Z,100995.28
2023-03-23T17:03:18.719Z,100997.31
2023-03-23T17:05:49.443Z,100959.94
2023-03-23T17:08:18.150Z,100982.81
2023-03-23T17:11:51.467Z,101001.84
2023-03-23T17:14:19.988Z,100993.06
2023-03-23T17:16:49.734Z,100998.63
2023-03-23T17:19:18.223Z,100997.63
2023-03-23T17:21:46.897Z,100998.63
2023-03-23T17:24:16.905Z,100995.09
2023-03-23T17:26:47.211Z,100998.63
2023-03-23T17:29:23.262Z,101001.00
2023-03-23T17:31:53.693Z,101001.66
2023-03-23T17:34:22.253Z,101005.38
2023-03-23T17:36:51.821Z,101007.06
2023-03-23T17:39:20.677Z,101002.50
2023-03-23T17:41:49.261Z,101005.53
2023-03-23T17:44:18.013Z,101010.22
2023-03-23T17:46:47.078Z,100951.59
2023-03-23T17:49:18.601Z,101013.25
2023-03-23T17:51:47.449Z,101015.78
2023-03-23T17:54:15.988Z,101015.88
2023-03-23T17:56:45.579Z,101010.31
2023-03-23T17:59:14.334Z,101016.19
2023-03-23T18:01:50.120Z,101025.56
2023-03-23T18:04:20.310Z,101026.09
2023-03-23T18:06:48.818Z,101024.72
2023-03-23T18:09:17.745Z,101023.88
2023-03-23T18:11:47.403Z,101024.22
2023-03-23T18:14:18.359Z,101028.06
2023-03-23T18:16:47.603Z,101037.47
2023-03-23T18:19:17.469Z,101031.31
2023-03-23T18:21:48.539Z,101033.63
2023-03-23T18:24:17.466Z,101034.44
2023-03-23T18:26:47.650Z,101039.63
2023-03-23T18:29:17.142Z,101040.78
2023-03-23T18:31:47.905Z,101043.78
2023-03-23T18:34:19.780Z,101046.47
2023-03-23T18:37:49.150Z,101050.81
2023-03-23T18:40:35.259Z,101055.47
2023-03-23T18:43:04.127Z,101051.56
2023-03-23T19:03:31.153Z,101062.94
2023-03-23T19:06:00.656Z,101065.00
2023-03-23T19:08:29.898Z,101062.06
2023-03-23T19:11:01.087Z,101068.13
2023-03-23T19:13:30.835Z,101069.13
2023-03-23T19:15:59.425Z,101059.66
2023-03-23T19:18:28.130Z,101058.94
2023-03-23T19:23:30.721Z,101070.84
2023-03-23T19:25:59.373Z,101075.22
2023-03-23T19:31:00.309Z,101069.31
2023-03-23T19:33:29.308Z,101077.69
2023-03-23T19:36:09.095Z,101078.81
2023-03-23T19:38:40.085Z,101073.94
2023-03-23T19:41:08.763Z,101086.34
2023-03-23T19:43:37.858Z,101084.34
2023-03-23T19:46:06.641Z,101077.28
2023-03-23T19:48:35.038Z,101083.19
2023-03-23T19:51:05.015Z,101078.66
2023-03-23T19:53:33.482Z,101088.03
2023-03-23T19:56:03.649Z,101093.41
2023-03-23T19:58:34.580Z,101090.72
2023-03-23T20:01:03.001Z,101090.06
2023-03-23T20:03:31.378Z,101085.50
2023-03-23T20:06:01.378Z,101078.63
2023-03-23T20:08:31.741Z,101090.38
2023-03-23T20:11:05.734Z,101079.38
2023-03-23T20:13:34.283Z,101092.66
2023-03-23T20:16:03.259Z,101087.28
2023-03-23T20:18:31.984Z,101097.50
2023-03-23T20:21:04.762Z,101093.25
2023-03-23T20:23:35.822Z,101094.41
2023-03-23T20:26:07.261Z,101090.19
2023-03-23T20:28:36.083Z,101078.06
2023-03-23T20:31:18.770Z,101085.44
2023-03-23T20:34:01.083Z,101092.13
2023-03-23T20:36:35.155Z,101093.97
2023-03-23T20:39:08.162Z,101087.44
2023-03-23T20:41:38.900Z,101093.81
2023-03-23T20:44:09.296Z,101092.28
2023-03-23T20:46:37.808Z,101086.06
2023-03-23T20:49:06.572Z,101088.59
2023-03-23T20:51:35.088Z,101090.44
2023-03-23T20:54:06.157Z,101077.16
2023-03-23T20:56:35.759Z,101087.75
2023-03-23T20:59:05.826Z,101082.53
2023-03-23T21:01:34.485Z,101081.53
2023-03-23T21:04:03.461Z,101082.69
2023-03-23T21:06:34.123Z,101085.97
2023-03-23T21:09:03.844Z,101083.59
2023-03-23T21:11:35.330Z,101084.97
2023-03-23T21:14:04.531Z,101094.88
2023-03-23T21:16:32.964Z,101083.13
2023-03-23T21:19:01.749Z,101090.72
2023-03-23T21:21:30.369Z,101085.06
2023-03-23T21:23:59.193Z,101089.94
2023-03-23T21:26:29.767Z,101089.81
2023-03-23T21:29:01.075Z,101053.78
2023-03-23T21:31:32.009Z,101074.69
2023-03-23T21:34:00.467Z,101080.06
2023-03-23T21:36:29.827Z,101073.19
2023-03-23T21:38:58.873Z,101073.34
2023-03-23T21:41:30.127Z,101069.66
2023-03-23T21:44:12.203Z,101061.75
2023-03-23T21:46:42.144Z,101068.03
2023-03-23T21:49:14.288Z,101074.38
2023-03-23T21:51:44.039Z,101064.66
2023-03-23T21:54:13.413Z,101065.97
2023-03-23T21:56:42.017Z,101071.66
2023-03-23T21:59:11.758Z,101057.53
2023-03-23T22:01:40.652Z,101064.59
2023-03-23T22:04:09.313Z,101068.81
2023-03-23T22:06:38.061Z,101077.00
2023-03-23T22:09:07.138Z,101038.28
2023-03-23T22:11:35.682Z,101053.56
2023-03-23T22:14:04.464Z,101055.25
2023-03-23T22:16:34.549Z,101047.19
2023-03-23T22:19:03.421Z,101063.59
2023-03-23T22:21:32.029Z,101056.69
2023-03-23T22:24:02.056Z,101021.78
2023-03-23T22:26:31.381Z,101052.19
2023-03-23T22:29:01.041Z,101045.13
2023-03-23T22:31:32.722Z,101054.00
2023-03-23T22:34:03.292Z,101045.13
2023-03-23T22:36:33.457Z,101055.84
2023-03-23T22:39:02.609Z,101048.66
2023-03-23T22:41:33.690Z,101047.50
2023-03-23T22:44:03.547Z,101040.44
2023-03-23T22:46:32.090Z,101049.19
2023-03-23T22:49:00.772Z,101052.38
2023-03-23T22:51:30.835Z,101045.88
2023-03-23T22:53:59.606Z,101043.88
2023-03-23T22:56:28.127Z,101036.66
2023-03-23T22:58:59.034Z,101046.25
2023-03-23T23:01:29.031Z,101045.09
2023-03-23T23:03:58.870Z,101043.25
2023-03-23T23:06:27.790Z,101044.94
2023-03-23T23:08:57.820Z,101046.78
2023-03-23T23:11:27.889Z,101041.41
2023-03-23T23:13:57.624Z,101036.91
2023-03-23T23:16:27.932Z,101029.16
2023-03-23T23:18:57.084Z,101008.81
2023-03-23T23:21:27.278Z,100996.41
2023-03-23T23:23:55.774Z,100993.19
2023-03-23T23:26:25.767Z,100992.50
2023-03-23T23:28:54.399Z,101002.56
2023-03-23T23:31:26.359Z,100989.31
2023-03-23T23:33:57.052Z,100953.72
2023-03-23T23:36:30.531Z,100979.03
2023-03-23T23:39:00.296Z,100977.34
2023-03-23T23:41:30.986Z,100975.66
2023-03-23T23:44:00.093Z,100962.78
2023-03-23T23:46:30.729Z,100973.66
2023-03-23T23:48:59.866Z,100979.03
2023-03-23T23:51:28.868Z,100944.69
2023-03-23T23:53:59.257Z,100945.22
2023-03-23T23:56:29.499Z,100946.28
2023-03-23T23:58:58.747Z,100920.50
